Time;durP1;ratioP1;P1;durP2;ratioP2;P2;SDS_P1;SDS_P2;PMS_P1;PMS_P2;Temp;Humidity;BMP_temperature;BMP_pressure;BME280_temperature;BME280_humidity;BME280_pressure;Samples;Min_cycle;Max_cycle;Signal;HPM_P1;HPM_P2
2022/09/13 00:02:12;;;;;;;1.73;0.63;;;;;;;;;;5086737;28;20020;-76
2022/09/13 00:04:39;;;;;;;0.77;0.50;;;;;;;;;;5086798;28;20038;-76
2022/09/13 00:07:06;;;;;;;0.97;0.40;;;;;;;;;;5090934;28;20478;-76
2022/09/13 00:09:33;;;;;;;0.53;0.50;;;;;;;;;;5091968;28;20501;-76
2022/09/13 00:11:59;;;;;;;2.97;0.60;;;;;;;;;;5092232;28;20479;-76
2022/09/13 00:14:26;;;;;;;1.43;0.70;;;;;;;;;;5092334;28;20020;-76
2022/09/13 00:16:53;;;;;;;0.83;0.60;;;;;;;;;;5091578;28;20031;-76
2022/09/13 00:19:19;;;;;;;0.73;0.50;;;;;;;;;;5086838;28;20036;-76
2022/09/13 00:21:47;;;;;;;7.60;0.77;;;;;;;;;;5086412;28;20440;-76
2022/09/13 00:24:14;;;;;;;1.03;0.70;;;;;;;;;;5086444;28;20032;-76
2022/09/13 00:26:40;;;;;;;1.17;0.60;;;;;;;;;;5086353;28;20036;-76
2022/09/13 00:29:07;;;;;;;0.40;0.40;;;;;;;;;;5090129;28;20024;-76
2022/09/13 00:31:34;;;;;;;1.67;1.00;;;;;;;;;;5091833;28;20414;-76
2022/09/13 00:34:00;;;;;;;3.60;1.27;;;;;;;;;;5091614;28;20474;-76
2022/09/13 00:36:27;;;;;;;1.13;0.80;;;;;;;;;;5091536;28;20032;-76
2022/09/13 00:38:54;;;;;;;0.73;0.67;;;;;;;;;;5091486;28;20032;-76
2022/09/13 00:41:21;;;;;;;1.40;0.80;;;;;;;;;;5088278;28;20107;-76
2022/09/13 00:43:52;;;;;;;1.40;0.93;;;;;;;;;;5086448;28;20550;-76
2022/09/13 00:46:37;;;;;;;4.27;1.10;;;;;;;;;;5086537;28;20016;-76
2022/09/13 00:49:13;;;;;;;0.90;0.70;;;;;;;;;;5085478;28;20036;-76
2022/09/13 00:51:42;;;;;;;2.97;1.30;;;;;;;;;;5089740;28;20042;-76
2022/09/13 00:54:09;;;;;;;0.43;0.40;;;;;;;;;;5091725;28;20085;-76
2022/09/13 00:56:46;;;;;;;0.63;0.47;;;;;;;;;;5091498;28;20035;-76
2022/09/13 00:59:15;;;;;;;1.50;0.90;;;;;;;;;;5091305;28;20031;-77
2022/09/13 01:01:46;;;;;;;1.40;0.80;;;;;;;;;;5091606;28;20039;-76
2022/09/13 01:04:14;;;;;;;1.17;0.67;;;;;;;;;;5086608;28;20032;-76
2022/09/13 01:06:41;;;;;;;2.90;1.30;;;;;;;;;;5086152;28;20540;-76
2022/09/13 01:09:10;;;;;;;7.23;1.30;;;;;;;;;;5086199;28;20103;-76
2022/09/13 01:11:47;;;;;;;1.90;0.77;;;;;;;;;;5086013;28;20016;-76
2022/09/13 01:14:16;;;;;;;2.30;0.80;;;;;;;;;;5091132;28;20020;-76
2022/09/13 01:16:43;;;;;;;0.83;0.60;;;;;;;;;;5091530;28;20432;-76
2022/09/13 01:19:09;;;;;;;0.97;0.50;;;;;;;;;;5091881;28;20024;-76
2022/09/13 01:21:48;;;;;;;0.80;0.47;;;;;;;;;;5091446;28;20111;-76
2022/09/13 01:24:27;;;;;;;0.83;0.40;;;;;;;;;;5077895;28;20036;-76
2022/09/13 01:27:15;;;;;;;0.50;0.37;;;;;;;;;;5085717;28;20394;-76
2022/09/13 01:29:57;;;;;;;1.93;0.90;;;;;;;;;;5086128;28;20030;-76
2022/09/13 01:32:27;;;;;;;0.87;0.47;;;;;;;;;;5089446;28;20020;-76
2022/09/13 01:35:03;;;;;;;0.37;0.37;;;;;;;;;;5090217;28;20099;-76
2022/09/13 01:37:31;;;;;;;1.60;0.83;;;;;;;;;;5093795;28;20493;-76
2022/09/13 01:40:04;;;;;;;3.00;1.10;;;;;;;;;;5094837;28;20034;-75
2022/09/13 01:42:52;;;;;;;3.20;0.70;;;;;;;;;;5094831;28;20044;-75
2022/09/13 01:45:34;;;;;;;1.40;0.80;;;;;;;;;;5095122;28;20028;-76
2022/09/13 01:48:13;;;;;;;0.90;0.73;;;;;;;;;;5091278;28;20055;-77
2022/09/13 01:50:42;;;;;;;1.60;0.97;;;;;;;;;;5089443;28;20028;-76
2022/09/13 01:53:25;;;;;;;1.77;1.20;;;;;;;;;;5089005;28;20028;-76
2022/09/13 01:55:59;;;;;;;3.87;1.40;;;;;;;;;;5088774;28;20759;-76
2022/09/13 01:58:48;;;;;;;2.30;1.03;;;;;;;;;;5092227;28;20026;-76
2022/09/13 02:01:33;;;;;;;1.20;0.70;;;;;;;;;;5094684;28;20028;-76
2022/09/13 02:04:07;;;;;;;2.03;1.02;;;;;;;;;;5093987;28;20114;-76
2022/09/13 02:06:37;;;;;;;1.55;1.00;;;;;;;;;;5094690;28;20026;-77
2022/09/13 02:09:09;;;;;;;0.53;0.40;;;;;;;;;;5093477;28;20503;-76
2022/09/13 02:11:38;;;;;;;1.43;0.70;;;;;;;;;;5088675;28;20545;-76
2022/09/13 02:14:05;;;;;;;1.70;1.00;;;;;;;;;;5088902;28;20031;-75
2022/09/13 02:16:44;;;;;;;5.47;1.37;;;;;;;;;;5088309;28;20126;-76
2022/09/13 02:19:23;;;;;;;2.03;1.13;;;;;;;;;;5088832;28;20024;-75
2022/09/13 02:21:52;;;;;;;0.70;0.70;;;;;;;;;;5094087;28;20027;-75
2022/09/13 02:24:21;;;;;;;1.33;1.00;;;;;;;;;;5094430;28;20062;-76
2022/09/13 02:26:51;;;;;;;2.23;1.50;;;;;;;;;;5093753;28;20024;-77
2022/09/13 02:29:20;;;;;;;10.10;1.40;;;;;;;;;;5093700;28;20051;-77
2022/09/13 02:32:08;;;;;;;8.37;1.60;;;;;;;;;;5091927;28;20020;-76
2022/09/13 02:34:56;;;;;;;2.23;1.60;;;;;;;;;;5088165;28;20046;-76
2022/09/13 02:37:24;;;;;;;1.00;0.77;;;;;;;;;;5080196;28;20041;-76
2022/09/13 02:39:55;;;;;;;1.53;0.93;;;;;;;;;;5088187;28;20031;-76
2022/09/13 02:42:35;;;;;;;3.10;1.03;;;;;;;;;;5088653;28;20410;-76
2022/09/13 02:45:02;;;;;;;2.27;1.37;;;;;;;;;;5093160;28;20081;-76
2022/09/13 02:47:48;;;;;;;0.60;0.53;;;;;;;;;;5093230;28;20501;-76
2022/09/13 02:50:18;;;;;;;0.87;0.80;;;;;;;;;;5093802;28;20024;-76
2022/09/13 02:53:00;;;;;;;2.40;1.67;;;;;;;;;;5093541;28;20024;-76
2022/09/13 02:55:33;;;;;;;19.10;1.63;;;;;;;;;;5089479;28;20032;-76
2022/09/13 02:58:02;;;;;;;2.30;1.10;;;;;;;;;;5087802;28;20058;-77
2022/09/13 03:00:30;;;;;;;2.23;1.23;;;;;;;;;;5087526;28;20024;-75
2022/09/13 03:02:58;;;;;;;1.83;1.20;;;;;;;;;;5087775;28;20071;-76
2022/09/13 03:05:25;;;;;;;4.00;0.90;;;;;;;;;;5091130;28;20433;-76
2022/09/13 03:07:52;;;;;;;5.50;1.37;;;;;;;;;;5092886;28;20082;-76
2022/09/13 03:10:19;;;;;;;15.10;1.00;;;;;;;;;;5091346;28;20054;-77
2022/09/13 03:13:05;;;;;;;2.10;1.07;;;;;;;;;;5084672;28;20035;-77
2022/09/13 03:15:32;;;;;;;2.57;0.97;;;;;;;;;;5093270;28;20529;-76
2022/09/13 03:18:11;;;;;;;5.07;1.37;;;;;;;;;;5088312;28;20095;-77
2022/09/13 03:20:41;;;;;;;1.37;0.97;;;;;;;;;;5087248;28;20024;-76
2022/09/13 03:23:17;;;;;;;2.40;1.10;;;;;;;;;;5087348;28;20085;-79
2022/09/13 03:26:02;;;;;;;0.73;0.57;;;;;;;;;;5087691;28;20440;-72
2022/09/13 03:28:28;;;;;;;;;;;;;;;;;;5093275;28;20020;-77
2022/09/13 03:31:17;;;;;;;2.17;1.20;;;;;;;;;;5092381;28;20366;-73
2022/09/13 03:33:52;;;;;;;1.10;0.83;;;;;;;;;;5092857;28;20024;-74
2022/09/13 03:36:25;;;;;;;1.20;1.08;;;;;;;;;;5092372;28;20024;-75
2022/09/13 03:39:04;;;;;;;1.00;0.70;;;;;;;;;;5090945;28;20028;-78
2022/09/13 03:41:33;;;;;;;0.90;0.67;;;;;;;;;;5087369;28;20502;-74
2022/09/13 03:44:02;;;;;;;1.20;1.00;;;;;;;;;;5086785;28;20028;-73
2022/09/13 03:46:29;;;;;;;1.23;0.90;;;;;;;;;;5087281;28;20028;-73
2022/09/13 03:48:57;;;;;;;1.67;1.23;;;;;;;;;;5087795;28;20062;-73
2022/09/13 03:51:24;;;;;;;1.33;0.93;;;;;;;;;;5092112;28;20028;-72
2022/09/13 03:53:55;;;;;;;1.43;1.00;;;;;;;;;;5089401;28;20028;-74
2022/09/13 03:56:22;;;;;;;2.57;1.13;;;;;;;;;;5092499;28;20383;-74
2022/09/13 03:58:49;;;;;;;3.10;1.40;;;;;;;;;;5092254;28;20053;-74
2022/09/13 04:01:20;;;;;;;2.10;1.03;;;;;;;;;;5090276;28;20032;-74
2022/09/13 04:03:47;;;;;;;0.77;0.70;;;;;;;;;;5086637;28;20059;-74
2022/09/13 04:06:14;;;;;;;1.40;1.00;;;;;;;;;;5086816;28;20022;-75
2022/09/13 04:08:41;;;;;;;1.90;1.03;;;;;;;;;;5086933;28;20028;-74
2022/09/13 04:11:08;;;;;;;0.30;0.30;;;;;;;;;;5087383;28;20047;-74
2022/09/13 04:13:35;;;;;;;0.70;0.70;;;;;;;;;;5092030;28;20474;-74
2022/09/13 04:16:06;;;;;;;1.63;1.13;;;;;;;;;;5092053;28;20031;-74
2022/09/13 04:18:33;;;;;;;0.60;0.50;;;;;;;;;;5092056;28;20352;-74
2022/09/13 04:21:00;;;;;;;0.50;0.50;;;;;;;;;;5092535;28;20028;-74
2022/09/13 04:23:27;;;;;;;1.03;0.30;;;;;;;;;;5091159;28;20040;-74
2022/09/13 04:25:55;;;;;;;0.30;0.30;;;;;;;;;;5086657;28;20032;-74
2022/09/13 04:28:22;;;;;;;2.23;0.97;;;;;;;;;;5086312;28;20356;-78
2022/09/13 04:30:49;;;;;;;0.60;0.60;;;;;;;;;;5087211;28;20039;-77
2022/09/13 04:33:16;;;;;;;1.07;0.90;;;;;;;;;;5085834;28;20020;-77
2022/09/13 04:35:43;;;;;;;2.47;1.23;;;;;;;;;;5092350;28;20133;-75
2022/09/13 04:38:10;;;;;;;2.70;1.63;;;;;;;;;;5091588;28;20028;-77
2022/09/13 04:40:38;;;;;;;0.77;0.60;;;;;;;;;;5091763;28;20032;-76
2022/09/13 04:43:04;;;;;;;8.73;1.80;;;;;;;;;;5091819;28;20040;-73
2022/09/13 04:45:31;;;;;;;1.33;1.03;;;;;;;;;;5089779;28;20052;-75
2022/09/13 04:47:59;;;;;;;1.07;0.93;;;;;;;;;;5084153;28;20086;-74
2022/09/13 04:50:26;;;;;;;3.53;1.10;;;;;;;;;;5086185;28;20035;-74
2022/09/13 04:52:54;;;;;;;1.97;1.13;;;;;;;;;;5086213;28;20078;-74
2022/09/13 04:55:21;;;;;;;1.43;1.03;;;;;;;;;;5086222;28;20093;-74
2022/09/13 04:57:47;;;;;;;0.50;0.50;;;;;;;;;;5090802;28;20505;-74
2022/09/13 05:00:14;;;;;;;1.07;0.63;;;;;;;;;;5092047;28;20020;-75
2022/09/13 05:02:41;;;;;;;0.37;0.37;;;;;;;;;;5091788;28;20466;-74
2022/09/13 05:05:08;;;;;;;0.70;0.50;;;;;;;;;;5090851;28;20031;-74
2022/09/13 05:07:34;;;;;;;1.03;0.57;;;;;;;;;;5095583;28;20020;-74
2022/09/13 05:10:01;;;;;;;1.47;1.07;;;;;;;;;;5090472;28;20032;-74
2022/09/13 05:12:27;;;;;;;2.17;1.13;;;;;;;;;;5090015;28;20024;-74
2022/09/13 05:14:54;;;;;;;2.13;1.00;;;;;;;;;;5089967;28;20051;-74
2022/09/13 05:17:21;;;;;;;1.93;1.17;;;;;;;;;;5090075;28;20035;-74
2022/09/13 05:19:48;;;;;;;1.07;0.70;;;;;;;;;;5094001;28;20024;-74
2022/09/13 05:22:14;;;;;;;2.33;1.10;;;;;;;;;;5094756;28;20050;-74
2022/09/13 05:24:41;;;;;;;0.90;0.70;;;;;;;;;;5095601;28;20103;-74
2022/09/13 05:27:08;;;;;;;2.87;1.57;;;;;;;;;;5095136;28;20379;-74
2022/09/13 05:29:35;;;;;;;1.10;0.83;;;;;;;;;;5095205;28;20546;-74
2022/09/13 05:32:02;;;;;;;2.97;0.90;;;;;;;;;;5090852;28;20024;-75
2022/09/13 05:34:28;;;;;;;1.20;0.87;;;;;;;;;;5089640;28;20419;-75
2022/09/13 05:36:55;;;;;;;1.40;1.03;;;;;;;;;;5089029;28;20463;-75
2022/09/13 05:39:22;;;;;;;2.67;1.23;;;;;;;;;;5089087;28;20020;-75
2022/09/13 05:41:48;;;;;;;3.77;0.70;;;;;;;;;;5092719;28;20021;-75
2022/09/13 05:44:15;;;;;;;3.23;1.00;;;;;;;;;;5094926;28;20036;-75
2022/09/13 05:46:42;;;;;;;2.50;1.07;;;;;;;;;;5094960;28;20367;-75
2022/09/13 05:49:09;;;;;;;0.47;0.47;;;;;;;;;;5094769;28;20464;-75
2022/09/13 05:51:36;;;;;;;0.40;0.40;;;;;;;;;;5094703;28;20512;-75
2022/09/13 05:54:02;;;;;;;2.97;1.23;;;;;;;;;;5091140;28;20028;-75
2022/09/13 05:56:30;;;;;;;0.90;0.60;;;;;;;;;;5088849;28;20032;-75
2022/09/13 05:58:57;;;;;;;1.90;1.20;;;;;;;;;;5089086;28;20024;-74
2022/09/13 06:01:28;;;;;;;0.70;0.60;;;;;;;;;;5088678;28;20467;-75
2022/09/13 06:03:56;;;;;;;0.77;0.43;;;;;;;;;;5091874;28;20036;-75
2022/09/13 06:06:23;;;;;;;2.63;1.20;;;;;;;;;;5077949;28;20024;-75
2022/09/13 06:08:57;;;;;;;2.40;1.47;;;;;;;;;;5094237;28;20111;-75
2022/09/13 06:11:25;;;;;;;1.23;1.03;;;;;;;;;;5093805;28;20417;-75
2022/09/13 06:13:52;;;;;;;2.13;1.37;;;;;;;;;;5094582;28;20077;-75
2022/09/13 06:16:18;;;;;;;1.03;0.93;;;;;;;;;;5090848;28;20017;-75
2022/09/13 06:18:45;;;;;;;1.70;1.30;;;;;;;;;;5089124;28;20028;-75
2022/09/13 06:21:16;;;;;;;1.73;1.13;;;;;;;;;;5088461;28;20035;-75
2022/09/13 06:23:50;;;;;;;2.47;1.50;;;;;;;;;;5088883;28;20036;-75
2022/09/13 06:26:18;;;;;;;1.08;0.95;;;;;;;;;;5091571;28;20384;-75
2022/09/13 06:28:49;;;;;;;1.93;1.10;;;;;;;;;;5094384;28;20028;-75
2022/09/13 06:31:16;;;;;;;1.57;1.23;;;;;;;;;;5093283;28;20020;-75
2022/09/13 06:33:43;;;;;;;1.77;1.30;;;;;;;;;;5094012;28;20032;-75
2022/09/13 06:36:10;;;;;;;3.57;1.83;;;;;;;;;;5093723;28;20101;-75
2022/09/13 06:38:39;;;;;;;2.50;1.33;;;;;;;;;;5090065;28;20470;-75
2022/09/13 06:41:06;;;;;;;3.60;1.97;;;;;;;;;;5068513;28;20111;-75
2022/09/13 06:43:34;;;;;;;2.60;1.73;;;;;;;;;;5071891;28;20070;-75
2022/09/13 06:46:01;;;;;;;3.27;1.70;;;;;;;;;;5088419;28;20055;-75
2022/09/13 06:48:31;;;;;;;2.77;1.37;;;;;;;;;;5090278;28;20121;-74
2022/09/13 06:50:58;;;;;;;0.73;0.70;;;;;;;;;;5093553;28;20024;-74
2022/09/13 06:53:27;;;;;;;1.67;1.10;;;;;;;;;;5093364;28;20056;-75
2022/09/13 06:56:07;;;;;;;0.73;0.70;;;;;;;;;;5093354;28;20154;-75
2022/09/13 06:58:35;;;;;;;3.17;1.17;;;;;;;;;;5093712;28;20024;-75
2022/09/13 07:01:10;;;;;;;1.47;0.97;;;;;;;;;;5088173;28;20360;-75
2022/09/13 07:03:38;;;;;;;4.90;1.00;;;;;;;;;;5087800;28;20032;-75
2022/09/13 07:06:11;;;;;;;1.47;1.00;;;;;;;;;;5087785;28;20055;-75
2022/09/13 07:08:38;;;;;;;2.20;1.33;;;;;;;;;;5087595;28;20046;-75
2022/09/13 07:11:06;;;;;;;0.63;0.63;;;;;;;;;;5090945;28;20081;-75
2022/09/13 07:13:32;;;;;;;1.80;1.47;;;;;;;;;;5093395;28;20032;-75
2022/09/13 07:16:03;;;;;;;9.53;1.23;;;;;;;;;;5092704;28;20032;-75
2022/09/13 07:18:30;;;;;;;1.17;1.00;;;;;;;;;;5092999;28;20024;-75
2022/09/13 07:21:07;;;;;;;1.87;1.50;;;;;;;;;;5092966;28;20726;-75
2022/09/13 07:23:34;;;;;;;1.80;1.20;;;;;;;;;;5089080;28;20031;-75
2022/09/13 07:26:03;;;;;;;1.10;1.00;;;;;;;;;;5087675;28;20538;-75
2022/09/13 07:28:31;;;;;;;7.60;2.33;;;;;;;;;;5087133;28;20028;-75
2022/09/13 07:31:04;;;;;;;2.90;1.10;;;;;;;;;;5087408;28;20034;-75
2022/09/13 07:33:31;;;;;;;1.10;0.90;;;;;;;;;;5091017;28;20090;-75
2022/09/13 07:36:00;;;;;;;1.47;1.13;;;;;;;;;;5092737;28;20479;-74
2022/09/13 07:38:27;;;;;;;1.97;1.37;;;;;;;;;;5092467;28;20020;-75
2022/09/13 07:40:58;;;;;;;1.37;1.20;;;;;;;;;;5092815;28;20095;-75
2022/09/13 07:43:26;;;;;;;1.87;1.30;;;;;;;;;;5092583;28;20457;-75
2022/09/13 07:45:58;;;;;;;4.93;2.50;;;;;;;;;;5088022;28;20041;-75
2022/09/13 07:48:26;;;;;;;3.23;1.20;;;;;;;;;;5087353;28;20020;-76
2022/09/13 07:51:03;;;;;;;0.97;0.83;;;;;;;;;;5086653;28;20023;-76
2022/09/13 07:53:30;;;;;;;0.57;0.43;;;;;;;;;;5086850;28;20062;-76
2022/09/13 07:56:15;;;;;;;1.63;1.07;;;;;;;;;;5090425;28;20056;-75
2022/09/13 07:58:41;;;;;;;;;;;;;;;;;;5092759;28;20054;-75
2022/09/13 08:01:10;;;;;;;6.93;1.20;;;;;;;;;;5092777;28;19904;-75
2022/09/13 08:03:37;;;;;;;12.87;1.20;;;;;;;;;;5092637;28;20024;-75
2022/09/13 08:06:05;;;;;;;3.73;0.97;;;;;;;;;;5092093;28;20032;-75
2022/09/13 08:08:32;;;;;;;1.13;0.77;;;;;;;;;;5087560;28;20020;-75
2022/09/13 08:10:59;;;;;;;0.60;0.60;;;;;;;;;;5086086;28;20024;-75
2022/09/13 08:13:27;;;;;;;1.00;0.73;;;;;;;;;;5086960;28;20394;-75
2022/09/13 08:15:55;;;;;;;0.80;0.70;;;;;;;;;;5085859;28;20088;-75
2022/09/13 08:18:21;;;;;;;0.90;0.73;;;;;;;;;;5090790;28;20020;-75
2022/09/13 08:20:48;;;;;;;1.27;1.03;;;;;;;;;;5092144;28;20034;-75
2022/09/13 08:23:15;;;;;;;0.97;0.87;;;;;;;;;;5091941;28;20089;-75
2022/09/13 08:25:41;;;;;;;0.73;0.70;;;;;;;;;;5091788;28;20030;-75
2022/09/13 08:28:09;;;;;;;0.50;0.50;;;;;;;;;;5092574;28;20020;-75
2022/09/13 08:30:37;;;;;;;1.87;1.37;;;;;;;;;;5087980;28;20038;-75
2022/09/13 08:33:04;;;;;;;1.57;1.10;;;;;;;;;;5086795;28;20027;-75
2022/09/13 08:35:31;;;;;;;0.57;0.57;;;;;;;;;;5086618;28;20036;-75
2022/09/13 08:37:59;;;;;;;1.50;0.90;;;;;;;;;;5086848;28;20090;-75
2022/09/13 08:40:27;;;;;;;0.40;0.40;;;;;;;;;;5089685;28;20495;-75
2022/09/13 08:43:14;;;;;;;1.67;0.60;;;;;;;;;;5095492;28;20036;-75
2022/09/13 08:45:41;;;;;;;1.53;0.67;;;;;;;;;;5088169;28;20050;-75
2022/09/13 08:48:14;;;;;;;0.80;0.80;;;;;;;;;;5096178;28;20537;-74
2022/09/13 08:50:42;;;;;;;0.87;0.70;;;;;;;;;;5095651;28;20054;-74
2022/09/13 08:53:20;;;;;;;4.77;0.33;;;;;;;;;;5090950;28;20099;-75
2022/09/13 08:55:51;;;;;;;0.90;0.60;;;;;;;;;;5090214;28;20054;-74
2022/09/13 08:58:27;;;;;;;1.20;0.50;;;;;;;;;;5090504;28;20036;-74
2022/09/13 09:01:08;;;;;;;1.00;0.43;;;;;;;;;;5090265;28;20106;-74
2022/09/13 09:03:45;;;;;;;0.90;0.60;;;;;;;;;;5095150;28;20035;-74
2022/09/13 09:06:14;;;;;;;0.23;0.23;;;;;;;;;;5095602;28;20120;-75
2022/09/13 09:08:47;;;;;;;0.47;0.30;;;;;;;;;;5095896;28;20028;-74
2022/09/13 09:11:28;;;;;;;0.33;0.30;;;;;;;;;;5095257;28;20026;-74
2022/09/13 09:13:54;;;;;;;2.80;1.07;;;;;;;;;;5094208;28;20028;-74
2022/09/13 09:16:28;;;;;;;0.53;0.30;;;;;;;;;;5090008;28;20031;-74
2022/09/13 09:18:55;;;;;;;8.73;0.63;;;;;;;;;;5089934;28;20036;-74
2022/09/13 09:21:22;;;;;;;0.83;0.80;;;;;;;;;;5089951;28;20085;-74
2022/09/13 09:23:53;;;;;;;0.20;0.20;;;;;;;;;;5090097;28;20032;-74
2022/09/13 09:26:25;;;;;;;1.13;0.83;;;;;;;;;;5095329;28;20023;-74
2022/09/13 09:28:57;;;;;;;0.30;0.30;;;;;;;;;;5095479;28;20028;-74
2022/09/13 09:31:42;;;;;;;0.60;0.50;;;;;;;;;;5095261;28;20036;-74
2022/09/13 09:34:08;;;;;;;0.20;0.20;;;;;;;;;;5094694;28;20035;-74
2022/09/13 09:36:50;;;;;;;0.40;0.30;;;;;;;;;;5093118;28;20059;-74
2022/09/13 09:39:17;;;;;;;0.57;0.43;;;;;;;;;;5088910;28;20024;-74
2022/09/13 09:41:44;;;;;;;3.70;1.00;;;;;;;;;;5089573;28;20420;-74
2022/09/13 09:44:11;;;;;;;0.50;0.50;;;;;;;;;;5089510;28;20391;-74
2022/09/13 09:46:39;;;;;;;0.53;0.50;;;;;;;;;;5090612;28;20024;-74
2022/09/13 09:52:14;;;;;;;0.60;0.32;;;;;;;;;;5094606;28;20128;-74
2022/09/13 09:54:40;;;;;;;0.47;0.47;;;;;;;;;;5094624;28;20016;-74
2022/09/13 09:57:08;;;;;;;0.43;0.43;;;;;;;;;;5095006;28;20016;-74
2022/09/13 09:59:36;;;;;;;0.30;0.30;;;;;;;;;;5091950;28;20020;-74
2022/09/13 10:02:11;;;;;;;1.70;0.50;;;;;;;;;;5089290;28;20012;-74
2022/09/13 10:04:38;;;;;;;0.40;0.40;;;;;;;;;;5089173;28;20370;-74
2022/09/13 10:07:10;;;;;;;0.37;0.37;;;;;;;;;;5089171;28;20085;-74
2022/09/13 10:09:38;;;;;;;0.57;0.57;;;;;;;;;;5091988;28;20048;-74
2022/09/13 10:12:05;;;;;;;0.40;0.40;;;;;;;;;;5094621;28;20519;-74
2022/09/13 10:14:32;;;;;;;2.17;1.13;;;;;;;;;;5094584;28;20038;-74
2022/09/13 10:17:16;;;;;;;0.20;0.20;;;;;;;;;;5094623;28;20443;-74
2022/09/13 10:19:53;;;;;;;0.33;0.33;;;;;;;;;;5094124;28;20016;-74
2022/09/13 10:22:21;;;;;;;0.77;0.63;;;;;;;;;;5090337;28;20040;-74
2022/09/13 10:24:49;;;;;;;0.40;0.40;;;;;;;;;;5089046;28;20101;-74
2022/09/13 10:27:21;;;;;;;1.00;0.80;;;;;;;;;;5088906;28;20024;-74
2022/09/13 10:29:50;;;;;;;0.47;0.47;;;;;;;;;;5088566;28;20095;-74
2022/09/13 10:32:18;;;;;;;0.50;0.50;;;;;;;;;;5091867;28;20375;-74
2022/09/13 10:34:46;;;;;;;0.63;0.50;;;;;;;;;;5094339;28;20020;-74
2022/09/13 10:37:16;;;;;;;1.17;0.70;;;;;;;;;;5094282;28;20119;-74
2022/09/13 10:40:09;;;;;;;0.93;0.63;;;;;;;;;;5094383;28;20082;-74
2022/09/13 10:42:36;;;;;;;0.30;0.30;;;;;;;;;;5056340;28;20040;-75
2022/09/13 10:45:06;;;;;;;1.17;0.67;;;;;;;;;;5088559;28;20093;-74
2022/09/13 10:47:44;;;;;;;0.50;0.40;;;;;;;;;;5087646;28;20112;-75
2022/09/13 10:50:20;;;;;;;0.30;0.30;;;;;;;;;;5088165;28;20046;-75
2022/09/13 10:52:48;;;;;;;0.33;0.33;;;;;;;;;;5088159;28;20024;-75
2022/09/13 10:55:18;;;;;;;0.50;0.37;;;;;;;;;;5093798;28;20031;-74
2022/09/13 10:57:53;;;;;;;1.83;0.50;;;;;;;;;;5093822;28;20470;-74
2022/09/13 11:00:19;;;;;;;;;;;;;;;;;;5093924;28;20016;-75
2022/09/13 11:02:46;;;;;;;0.90;0.60;;;;;;;;;;5093052;28;20281;-75
2022/09/13 11:05:27;;;;;;;0.77;0.53;;;;;;;;;;5092556;28;20023;-75
2022/09/13 11:07:54;;;;;;;0.57;0.43;;;;;;;;;;5088535;28;20077;-74
2022/09/13 11:10:20;;;;;;;2.07;1.20;;;;;;;;;;5088022;28;20491;-74
2022/09/13 11:13:07;;;;;;;1.37;0.83;;;;;;;;;;5088437;28;20024;-74
2022/09/13 11:15:37;;;;;;;1.23;0.73;;;;;;;;;;5074530;28;20047;-74
2022/09/13 11:18:03;;;;;;;1.47;0.83;;;;;;;;;;5093372;28;20405;-74
2022/09/13 11:20:35;;;;;;;1.07;0.80;;;;;;;;;;5093110;28;20035;-74
2022/09/13 11:23:02;;;;;;;1.37;0.90;;;;;;;;;;5093156;28;20036;-74
2022/09/13 11:25:31;;;;;;;0.40;0.40;;;;;;;;;;5093098;28;20020;-74
2022/09/13 11:28:15;;;;;;;0.60;0.40;;;;;;;;;;5091338;28;20024;-74
2022/09/13 11:31:02;;;;;;;0.73;0.67;;;;;;;;;;5087871;28;20020;-75
2022/09/13 11:33:29;;;;;;;2.17;0.53;;;;;;;;;;5087702;28;20028;-75
2022/09/13 11:36:13;;;;;;;0.30;0.30;;;;;;;;;;5087608;28;20024;-75
2022/09/13 11:38:49;;;;;;;1.30;0.90;;;;;;;;;;5090335;28;20028;-74
2022/09/13 11:41:34;;;;;;;1.13;0.67;;;;;;;;;;5092743;28;20339;-75
2022/09/13 11:44:16;;;;;;;1.02;0.88;;;;;;;;;;5092398;28;20031;-73
2022/09/13 11:46:48;;;;;;;1.40;1.10;;;;;;;;;;5092798;28;20020;-75
2022/09/13 11:49:24;;;;;;;2.00;1.07;;;;;;;;;;5092434;28;20043;-73
2022/09/13 11:52:13;;;;;;;1.13;0.83;;;;;;;;;;5087949;28;20054;-73
2022/09/13 11:54:40;;;;;;;0.40;0.40;;;;;;;;;;5086914;28;20031;-73
2022/09/13 11:57:09;;;;;;;1.10;0.83;;;;;;;;;;5087513;28;20513;-73
2022/09/13 11:59:42;;;;;;;2.30;0.60;;;;;;;;;;5087231;28;20028;-73
2022/09/13 12:02:12;;;;;;;0.97;0.70;;;;;;;;;;5092300;28;20035;-75
2022/09/13 12:04:45;;;;;;;1.10;0.80;;;;;;;;;;5092376;28;20032;-73
2022/09/13 12:07:17;;;;;;;0.60;0.60;;;;;;;;;;5092453;28;20032;-74
2022/09/13 12:09:52;;;;;;;0.83;0.57;;;;;;;;;;5092691;28;20034;-74
2022/09/13 12:12:20;;;;;;;0.38;0.38;;;;;;;;;;5090871;28;20032;-75
2022/09/13 12:15:05;;;;;;;0.10;0.10;;;;;;;;;;5085259;28;20059;-75
2022/09/13 12:17:36;;;;;;;0.65;0.55;;;;;;;;;;5086963;28;20023;-73
2022/09/13 12:20:05;;;;;;;0.80;0.60;;;;;;;;;;5086599;28;20097;-74
2022/09/13 12:22:34;;;;;;;0.43;0.33;;;;;;;;;;5088224;28;20024;-75
2022/09/13 12:25:06;;;;;;;1.30;0.53;;;;;;;;;;5091690;28;20047;-74
2022/09/13 12:27:33;;;;;;;0.67;0.47;;;;;;;;;;5092398;28;20475;-74
2022/09/13 12:30:06;;;;;;;0.43;0.33;;;;;;;;;;5092084;28;20103;-74
2022/09/13 12:32:33;;;;;;;5.70;1.07;;;;;;;;;;5092158;28;20024;-75
2022/09/13 12:35:05;;;;;;;0.83;0.70;;;;;;;;;;5090265;28;20052;-75
2022/09/13 12:37:42;;;;;;;0.87;0.67;;;;;;;;;;5071093;28;20024;-74
2022/09/13 12:40:16;;;;;;;0.70;0.60;;;;;;;;;;5086827;28;20028;-73
2022/09/13 12:42:52;;;;;;;0.50;0.50;;;;;;;;;;5086913;28;20119;-75
2022/09/13 12:45:30;;;;;;;0.97;0.87;;;;;;;;;;5088626;28;20020;-75
2022/09/13 12:48:10;;;;;;;0.70;0.37;;;;;;;;;;5091970;28;20059;-75
2022/09/13 12:50:53;;;;;;;0.87;0.77;;;;;;;;;;5091442;28;20032;-73
2022/09/13 12:53:27;;;;;;;0.70;0.57;;;;;;;;;;5091325;28;20137;-74
2022/09/13 12:55:53;;;;;;;2.47;1.47;;;;;;;;;;5091973;28;20487;-76
2022/09/13 12:58:38;;;;;;;1.27;1.10;;;;;;;;;;5087400;28;20032;-77
2022/09/13 13:01:20;;;;;;;1.77;1.33;;;;;;;;;;5086697;28;20024;-76
2022/09/13 13:03:50;;;;;;;1.63;1.17;;;;;;;;;;5086235;28;20040;-76
2022/09/13 13:06:32;;;;;;;1.20;0.97;;;;;;;;;;5086706;28;20030;-76
2022/09/13 13:09:00;;;;;;;0.93;0.70;;;;;;;;;;5091919;28;20031;-77
2022/09/13 13:11:28;;;;;;;1.20;1.00;;;;;;;;;;5075336;28;20056;-78
2022/09/13 13:14:01;;;;;;;1.80;0.80;;;;;;;;;;5091298;28;20471;-76
2022/09/13 13:16:32;;;;;;;0.93;0.73;;;;;;;;;;5091696;28;20027;-76
2022/09/13 13:19:00;;;;;;;1.83;1.20;;;;;;;;;;5091187;28;20478;-77
2022/09/13 13:21:35;;;;;;;0.73;0.73;;;;;;;;;;5085861;28;20459;-76
2022/09/13 13:24:20;;;;;;;1.10;0.85;;;;;;;;;;5086369;28;20032;-76
2022/09/13 13:26:46;;;;;;;0.32;0.32;;;;;;;;;;5087493;28;20027;-76
2022/09/13 13:29:15;;;;;;;1.60;1.07;;;;;;;;;;5090929;28;20085;-75
2022/09/13 13:31:44;;;;;;;1.07;0.90;;;;;;;;;;5095260;28;20106;-77
2022/09/13 13:34:14;;;;;;;1.70;1.43;;;;;;;;;;5095546;28;20066;-75
2022/09/13 13:36:40;;;;;;;1.40;0.90;;;;;;;;;;5094285;28;20028;-76
2022/09/13 13:39:10;;;;;;;0.83;0.70;;;;;;;;;;5094847;28;20625;-76
2022/09/13 13:41:37;;;;;;;3.00;1.07;;;;;;;;;;5093727;28;20153;-75
2022/09/13 13:44:24;;;;;;;1.50;1.13;;;;;;;;;;5089694;28;20109;-77
2022/09/13 13:46:54;;;;;;;1.47;1.10;;;;;;;;;;5037706;28;20036;-77
2022/09/13 13:49:30;;;;;;;1.20;0.80;;;;;;;;;;5069474;28;20024;-76
2022/09/13 13:52:21;;;;;;;1.80;1.20;;;;;;;;;;5084296;28;20103;-76
2022/09/13 13:55:03;;;;;;;1.40;1.03;;;;;;;;;;5094303;28;20027;-76
2022/09/13 13:57:38;;;;;;;0.80;0.57;;;;;;;;;;5094701;28;20445;-75
2022/09/13 14:00:07;;;;;;;2.90;2.30;;;;;;;;;;5094727;28;20058;-75
2022/09/13 14:02:40;;;;;;;5.80;2.83;;;;;;;;;;5094447;28;20036;-75
2022/09/13 14:05:11;;;;;;;4.77;3.00;;;;;;;;;;5090806;28;20403;-75
2022/09/13 14:07:43;;;;;;;4.67;3.73;;;;;;;;;;5088828;28;20024;-76
2022/09/13 14:10:30;;;;;;;4.33;3.93;;;;;;;;;;5089337;28;20032;-76
2022/09/13 14:13:19;;;;;;;11.90;9.30;;;;;;;;;;5087676;28;20093;-76
2022/09/13 14:15:52;;;;;;;11.67;8.03;;;;;;;;;;5093094;28;20019;-76
2022/09/13 14:18:19;;;;;;;13.80;9.63;;;;;;;;;;5093526;28;20031;-75
2022/09/13 14:20:59;;;;;;;8.63;5.70;;;;;;;;;;5093027;28;20386;-76
2022/09/13 14:23:26;;;;;;;4.80;3.20;;;;;;;;;;5092843;28;20064;-75
2022/09/13 14:25:57;;;;;;;2.47;1.53;;;;;;;;;;5092121;28;20085;-76
2022/09/13 14:28:24;;;;;;;1.20;0.97;;;;;;;;;;5087806;28;20028;-76
2022/09/13 14:30:55;;;;;;;1.50;1.17;;;;;;;;;;5087658;28;20032;-76
2022/09/13 14:33:30;;;;;;;10.83;1.03;;;;;;;;;;5088024;28;20425;-76
2022/09/13 14:35:58;;;;;;;0.85;0.63;;;;;;;;;;5075457;28;20054;-75
2022/09/13 14:38:31;;;;;;;1.33;0.80;;;;;;;;;;5091991;28;20054;-76
2022/09/13 14:40:59;;;;;;;0.80;0.73;;;;;;;;;;5092723;28;20023;-75
2022/09/13 14:43:27;;;;;;;0.50;0.47;;;;;;;;;;5093153;28;20032;-76
2022/09/13 14:46:13;;;;;;;1.00;0.80;;;;;;;;;;5092594;28;20378;-76
2022/09/13 14:48:42;;;;;;;0.30;0.30;;;;;;;;;;5077154;28;20368;-77
2022/09/13 14:51:08;;;;;;;0.80;0.67;;;;;;;;;;5087435;28;20048;-77
2022/09/13 14:53:36;;;;;;;0.60;0.50;;;;;;;;;;5087056;28;20071;-77
2022/09/13 14:56:05;;;;;;;0.87;0.53;;;;;;;;;;5087061;28;20018;-77
2022/09/13 14:58:37;;;;;;;1.70;0.87;;;;;;;;;;5088014;28;20028;-77
2022/09/13 15:01:05;;;;;;;0.90;0.70;;;;;;;;;;5092831;28;20055;-77
2022/09/13 15:03:32;;;;;;;0.40;0.30;;;;;;;;;;5092302;28;20115;-77
2022/09/13 15:06:01;;;;;;;1.40;1.03;;;;;;;;;;5092468;28;20056;-77
2022/09/13 15:08:28;;;;;;;1.33;0.93;;;;;;;;;;5092268;28;20085;-77
2022/09/13 15:10:57;;;;;;;0.45;0.45;;;;;;;;;;5022481;28;1941556;-77